createdAt,value
2022-10-04T14:11:02.086Z,20.20
2022-10-04T14:14:10.162Z,19.70
2022-10-04T14:17:06.896Z,19.50
2022-10-04T14:20:00.634Z,19.40
2022-10-04T14:22:55.950Z,19.40
2022-10-04T14:26:01.043Z,19.40
2022-10-04T14:28:52.412Z,19.40
2022-10-04T14:31:52.723Z,19.60
2022-10-04T14:34:56.867Z,19.60
2022-10-04T14:37:49.962Z,19.80
2022-10-04T14:40:37.339Z,20.30
2022-10-04T14:43:24.789Z,20.50
2022-10-04T14:46:08.648Z,20.50
2022-10-04T14:48:54.541Z,20.40
2022-10-04T14:51:40.766Z,20.60
2022-10-04T14:54:13.506Z,20.40
2022-10-04T14:56:53.456Z,20.50
2022-10-04T14:59:36.650Z,21.80
2022-10-04T15:02:23.892Z,22.90
2022-10-04T15:05:28.603Z,22.60
2022-10-04T15:08:12.377Z,22.40
2022-10-04T15:10:50.898Z,22.50
2022-10-04T15:13:26.240Z,22.30
2022-10-04T15:16:08.922Z,22.10
2022-10-04T15:18:52.075Z,21.80
2022-10-04T15:21:44.062Z,21.30
2022-10-04T15:24:25.732Z,20.80
2022-10-04T15:27:39.337Z,20.50
2022-10-04T15:30:22.027Z,20.10
2022-10-04T15:33:07.218Z,19.80
2022-10-04T15:35:48.668Z,19.50
2022-10-04T15:38:25.406Z,19.30
2022-10-04T15:41:03.089Z,19.20
2022-10-04T15:43:35.879Z,19.00
2022-10-04T15:46:27.677Z,18.80
2022-10-04T15:49:22.692Z,18.60
2022-10-04T15:52:21.783Z,18.50
2022-10-04T15:55:18.600Z,18.40
2022-10-04T15:58:25.909Z,18.30
2022-10-04T16:01:07.641Z,18.20
2022-10-04T16:03:47.089Z,18.20
2022-10-04T16:06:24.352Z,18.20
2022-10-04T16:09:15.001Z,18.10
2022-10-04T16:12:05.826Z,18.00
2022-10-04T16:15:02.311Z,17.80
2022-10-04T16:17:46.443Z,17.70
2022-10-04T16:20:26.123Z,17.40
2022-10-04T16:23:24.987Z,17.20
2022-10-04T16:25:54.084Z,17.00
2022-10-04T16:28:49.851Z,16.90
2022-10-04T16:31:49.825Z,16.70
2022-10-04T16:34:35.001Z,16.60
2022-10-04T16:37:17.185Z,16.40
2022-10-04T16:40:05.452Z,16.30
2022-10-04T16:42:48.947Z,16.20
2022-10-04T16:45:42.563Z,16.10
2022-10-04T16:48:26.963Z,15.90
2022-10-04T16:51:23.932Z,15.90
2022-10-04T16:53:59.681Z,15.80
2022-10-04T16:56:31.871Z,15.70
2022-10-04T16:59:02.180Z,15.70
2022-10-04T17:02:00.529Z,15.60
2022-10-04T17:04:49.295Z,15.60
2022-10-04T17:07:27.098Z,15.50
2022-10-04T17:10:02.603Z,15.40
2022-10-04T17:12:37.704Z,15.30
